Maersk Missouri — WAHV — position and weather

sailwx.info

Track history (hours):
 
Tides and Currents Weather Stations Pressure Air Temp Water Temp Dewpoint Dewpoint Depression Visibility Wind Speed Wind Dir Waves Ship Positions

Maersk Missouri

More information available from US FCC via Universal Licensing System and Coast Guard Vessel Documentation Center.

Last reported at 2014-Jul-25 00:00 UTC. Time now 2014-Jul-25 11:25 UTC.
Position N 45°12' W 039°06'.

Type: Cargo ship. MMSI: 369708000.

Wind from 280 at 17 knots

Waves 1.5 meters (5 feet), 5 second period

Barometer 1020.7 mb
Air temperature 18.0 ° C
Visibility: greater than 10.8 NM
Dewpoint 12.3 ° C
Water temperature 18.7 ° C

Date/timePositionNaut miles runAvg speedWind from/ knotsBaromVisibWave heightAir tempDewpointWater temp
2014-Jul-25 00:00N 45°12' W 039°06'40717.0 280 / 171020.710.8 1.518.012.318.7
2014-Jul-24 00:00N 42°36' W 047°48'41617.3 300 / 121021.310.8 0.517.012.519.2
2014-Jul-23 00:00N 40°54' W 056°48'30617.0 340 / 61021.110.8 0.520.516.423.6
2014-Jul-22 06:00N 40°30' W 063°30'10517.5 020 / 141021.3 22.020.525.1
2014-Jul-22 00:00N 40°00' W 065°42'16118.4 070 / 71022.110.8 0.523.220.024.8
2014-Jul-21 15:14N 39°57' W 069°13'21715.8
2014-Jul-21 01:29N 40°29' W 073°54'1313.6
2014-Jul-21 00:33N 40°39' W 074°04'3 3.4
2014-Jul-20 23:33N 40°40' W 074°09'0 0.0
2014-Jul-20 22:30N 40°40' W 074°09'0 0.0
2014-Jul-20 21:31N 40°40' W 074°09'0 0.0
2014-Jul-20 20:31N 40°40' W 074°09'0 0.0
2014-Jul-20 19:32N 40°40' W 074°09'0 0.0
2014-Jul-20 18:33N 40°40' W 074°09'0 0.0
2014-Jul-20 17:33N 40°40' W 074°09'0 0.0
2014-Jul-20 16:28N 40°40' W 074°09'0 0.0
2014-Jul-20 15:29N 40°40' W 074°09'0 0.0
2014-Jul-20 14:32N 40°40' W 074°09'0 0.0
2014-Jul-20 13:33N 40°40' W 074°09'0 0.0
2014-Jul-20 12:30N 40°40' W 074°09'0 0.0
2014-Jul-20 11:25N 40°40' W 074°09'0 0.2
2014-Jul-20 10:34N 40°40' W 074°09'4 4.0
2014-Jul-20 09:33N 40°39' W 074°04'9 9.1
2014-Jul-20 08:33N 40°31' W 073°58'1411.3
2014-Jul-20 07:21N 40°20' W 073°46'4 4.3
2014-Jul-20 06:32N 40°17' W 073°45'1 0.6
2014-Jul-20 05:32N 40°17' W 073°45'0 0.1
2014-Jul-20 04:32N 40°18' W 073°45'0 0.3
2014-Jul-20 03:28N 40°18' W 073°45'15 5.1
2014-Jul-20 00:33N 40°03' W 073°44'916.6
2014-Jul-20 00:00N 39°54' W 073°42'3 5.8 090 / 101024.610.8 1.022.017.222.5
2014-Jul-19 23:32N 39°56' W 073°43'13 6.6
2014-Jul-19 21:33N 39°44' W 073°41'7 6.6
2014-Jul-19 20:29N 39°36' W 073°41'6 6.7
2014-Jul-19 19:33N 39°30' W 073°41'9 6.5
2014-Jul-19 18:12N 39°22' W 073°46'5 6.5
2014-Jul-19 17:30N 39°18' W 073°49'12210.6
2014-Jul-19 06:00N 37°30' W 075°00'4610.3 100 / 121024.810.8 23.014.625.0
2014-Jul-19 01:33N 36°55' W 075°37'12 8.9
2014-Jul-19 00:11N 36°51' W 075°51'1010.8
2014-Jul-18 23:17N 36°57' W 076°01'1317.2
2014-Jul-18 22:32N 37°00' W 076°17'8 8.5
2014-Jul-18 21:33N 36°53' W 076°21'0 0.0
2014-Jul-18 19:22N 36°53' W 076°21'0 0.0
2014-Jul-18 18:05N 36°53' W 076°21'0 0.0
2014-Jul-18 15:22N 36°53' W 076°21'0 0.0
2014-Jul-18 14:10N 36°53' W 076°21'0 0.0
2014-Jul-18 13:29N 36°53' W 076°21'0 0.0
2014-Jul-18 11:31N 36°53' W 076°21'8 3.4
2014-Jul-18 09:16N 36°60' W 076°18'1217.1
2014-Jul-18 08:33N 36°57' W 076°03'1211.4
2014-Jul-18 07:30N 36°52' W 075°50'6 6.1
2014-Jul-18 06:31N 36°50' W 075°43'2 1.6
2014-Jul-18 05:32N 36°51' W 075°41'1 0.9
2014-Jul-18 04:28N 36°50' W 075°42'2 1.0
2014-Jul-18 02:32N 36°50' W 075°40'2410.7
2014-Jul-18 00:17N 36°27' W 075°30'1211.0
2014-Jul-17 23:14N 36°17' W 075°23'20111.7
2014-Jul-17 06:00N 33°06' W 076°42'179 3.7 280 / 111014.8 5.4 25.022.028.4
2014-Jul-15 06:00N 31°18' W 079°30'9015.0 200 / 231018.510.8 27.021.829.2
2014-Jul-15 00:00N 29°48' W 079°30'   180 / 111020.110.8 0.532.025.028.8
Track history (hours):
 
Tides and Currents Weather Stations Pressure Air Temp Water Temp Dewpoint Dewpoint Depression Visibility Wind Speed Wind Dir Waves Ship Positions

Maersk Missouri

More information available from US FCC via Universal Licensing System and Coast Guard Vessel Documentation Center.

Last reported at 2014-Jul-25 00:00 UTC. Time now 2014-Jul-25 11:25 UTC.
Position N 45°12' W 039°06'.

Type: Cargo ship. MMSI: 369708000.

Wind from 280 at 17 knots

Waves 1.5 meters (5 feet), 5 second period

Barometer 1020.7 mb
Air temperature 18.0 ° C
Visibility: greater than 10.8 NM
Dewpoint 12.3 ° C
Water temperature 18.7 ° C

Date/timePositionNaut miles runAvg speedWind from/ knotsBaromVisibWave heightAir tempDewpointWater temp
2014-Jul-25 00:00N 45°12' W 039°06'40717.0 280 / 171020.710.8 1.518.012.318.7
2014-Jul-24 00:00N 42°36' W 047°48'41617.3 300 / 121021.310.8 0.517.012.519.2
2014-Jul-23 00:00N 40°54' W 056°48'30617.0 340 / 61021.110.8 0.520.516.423.6
2014-Jul-22 06:00N 40°30' W 063°30'10517.5 020 / 141021.3 22.020.525.1
2014-Jul-22 00:00N 40°00' W 065°42'16118.4 070 / 71022.110.8 0.523.220.024.8
2014-Jul-21 15:14N 39°57' W 069°13'21715.8
2014-Jul-21 01:29N 40°29' W 073°54'1313.6
2014-Jul-21 00:33N 40°39' W 074°04'3 3.4
2014-Jul-20 23:33N 40°40' W 074°09'0 0.0
2014-Jul-20 22:30N 40°40' W 074°09'0 0.0
2014-Jul-20 21:31N 40°40' W 074°09'0 0.0
2014-Jul-20 20:31N 40°40' W 074°09'0 0.0
2014-Jul-20 19:32N 40°40' W 074°09'0 0.0
2014-Jul-20 18:33N 40°40' W 074°09'0 0.0
2014-Jul-20 17:33N 40°40' W 074°09'0 0.0
2014-Jul-20 16:28N 40°40' W 074°09'0 0.0
2014-Jul-20 15:29N 40°40' W 074°09'0 0.0
2014-Jul-20 14:32N 40°40' W 074°09'0 0.0
2014-Jul-20 13:33N 40°40' W 074°09'0 0.0
2014-Jul-20 12:30N 40°40' W 074°09'0 0.0
2014-Jul-20 11:25N 40°40' W 074°09'0 0.2
2014-Jul-20 10:34N 40°40' W 074°09'4 4.0
2014-Jul-20 09:33N 40°39' W 074°04'9 9.1
2014-Jul-20 08:33N 40°31' W 073°58'1411.3
2014-Jul-20 07:21N 40°20' W 073°46'4 4.3
2014-Jul-20 06:32N 40°17' W 073°45'1 0.6
2014-Jul-20 05:32N 40°17' W 073°45'0 0.1
2014-Jul-20 04:32N 40°18' W 073°45'0 0.3
2014-Jul-20 03:28N 40°18' W 073°45'15 5.1
2014-Jul-20 00:33N 40°03' W 073°44'916.6
2014-Jul-20 00:00N 39°54' W 073°42'3 5.8 090 / 101024.610.8 1.022.017.222.5
2014-Jul-19 23:32N 39°56' W 073°43'13 6.6
2014-Jul-19 21:33N 39°44' W 073°41'7 6.6
2014-Jul-19 20:29N 39°36' W 073°41'6 6.7
2014-Jul-19 19:33N 39°30' W 073°41'9 6.5
2014-Jul-19 18:12N 39°22' W 073°46'5 6.5
2014-Jul-19 17:30N 39°18' W 073°49'12210.6
2014-Jul-19 06:00N 37°30' W 075°00'4610.3 100 / 121024.810.8 23.014.625.0
2014-Jul-19 01:33N 36°55' W 075°37'12 8.9
2014-Jul-19 00:11N 36°51' W 075°51'1010.8
2014-Jul-18 23:17N 36°57' W 076°01'1317.2
2014-Jul-18 22:32N 37°00' W 076°17'8 8.5
2014-Jul-18 21:33N 36°53' W 076°21'0 0.0
2014-Jul-18 19:22N 36°53' W 076°21'0 0.0
2014-Jul-18 18:05N 36°53' W 076°21'0 0.0
2014-Jul-18 15:22N 36°53' W 076°21'0 0.0
2014-Jul-18 14:10N 36°53' W 076°21'0 0.0
2014-Jul-18 13:29N 36°53' W 076°21'0 0.0
2014-Jul-18 11:31N 36°53' W 076°21'8 3.4
2014-Jul-18 09:16N 36°60' W 076°18'1217.1
2014-Jul-18 08:33N 36°57' W 076°03'1211.4
2014-Jul-18 07:30N 36°52' W 075°50'6 6.1
2014-Jul-18 06:31N 36°50' W 075°43'2 1.6
2014-Jul-18 05:32N 36°51' W 075°41'1 0.9
2014-Jul-18 04:28N 36°50' W 075°42'2 1.0
2014-Jul-18 02:32N 36°50' W 075°40'2410.7
2014-Jul-18 00:17N 36°27' W 075°30'1211.0
2014-Jul-17 23:14N 36°17' W 075°23'20111.7
2014-Jul-17 06:00N 33°06' W 076°42'179 3.7 280 / 111014.8 5.4 25.022.028.4
2014-Jul-15 06:00N 31°18' W 079°30'9015.0 200 / 231018.510.8 27.021.829.2
2014-Jul-15 00:00N 29°48' W 079°30'   180 / 111020.110.8 0.532.025.028.8

Dump ship's entire track history